Time;durP1;ratioP1;P1;durP2;ratioP2;P2;SDS_P1;SDS_P2;PMS_P1;PMS_P2;Temp;Humidity;BMP_temperature;BMP_pressure;BME280_temperature;BME280_humidity;BME280_pressure;Samples;Min_cycle;Max_cycle;Signal;HPM_P1;HPM_P2
2023/10/25 00:01:16;;;;;;;;;;;9.30;99.90;;;;;;5075123;28;20314;-86
2023/10/25 00:03:41;;;;;;;;;;;9.30;99.90;;;;;;5051697;28;19982;-85
2023/10/25 00:06:07;;;;;;;;;;;9.30;99.90;;;;;;5057318;28;20077;-87
2023/10/25 00:08:33;;;;;;;;;;;9.30;99.90;;;;;;5053270;28;19920;-85
2023/10/25 00:11:02;;;;;;;;;;;9.30;99.90;;;;;;5042423;28;19920;-87
2023/10/25 00:13:28;;;;;;;;;;;9.30;99.90;;;;;;5060426;28;19920;-86
2023/10/25 00:15:53;;;;;;;;;;;9.20;99.90;;;;;;5056205;28;19965;-89
2023/10/25 00:18:19;;;;;;;;;;;9.20;99.90;;;;;;5042596;28;20336;-86
2023/10/25 00:20:44;;;;;;;;;;;9.50;99.90;;;;;;5033911;28;19920;-87
2023/10/25 00:23:10;;;;;;;;;;;9.20;99.90;;;;;;5037041;28;19935;-88
2023/10/25 00:25:36;;;;;;;;;;;9.20;99.90;;;;;;5054723;28;19920;-86
2023/10/25 00:28:01;;;;;;;;;;;9.20;99.90;;;;;;5057897;28;19920;-87
2023/10/25 00:30:27;;;;;;;;;;;9.20;99.90;;;;;;5092820;28;20572;-85
2023/10/25 00:32:52;;;;;;;;;;;9.10;99.90;;;;;;5078348;28;19946;-88
2023/10/25 00:35:18;;;;;;;;;;;9.10;99.90;;;;;;5077761;28;19921;-85
2023/10/25 00:37:43;;;;;;;;;;;9.10;99.90;;;;;;5079253;28;19999;-88
2023/10/25 00:40:09;;;;;;;;;;;9.00;99.90;;;;;;5062972;28;19924;-86
2023/10/25 00:42:35;;;;;;;;;;;9.00;99.90;;;;;;5044064;28;20533;-86
2023/10/25 00:45:00;;;;;;;;;;;9.00;99.90;;;;;;5076914;28;19924;-89
2023/10/25 00:47:26;;;;;;;;;;;9.00;99.90;;;;;;5074770;28;20319;-85
2023/10/25 00:49:52;;;;;;;;;;;9.00;99.90;;;;;;5041545;28;19985;-87
2023/10/25 00:52:17;;;;;;;;;;;9.00;99.90;;;;;;5063700;28;19924;-86
2023/10/25 00:54:44;;;;;;;;;;;9.00;99.90;;;;;;5060727;28;19920;-85
2023/10/25 00:57:09;;;;;;;;;;;8.90;99.90;;;;;;5062720;28;19927;-86
2023/10/25 00:59:35;;;;;;;;;;;8.90;99.90;;;;;;5062781;28;19979;-87
2023/10/25 01:02:02;;;;;;;;;;;8.90;99.90;;;;;;5059658;28;20401;-87
2023/10/25 01:04:29;;;;;;;;;;;8.90;99.90;;;;;;5063134;28;19925;-86
2023/10/25 01:06:54;;;;;;;;;;;8.90;99.90;;;;;;5074803;28;20489;-87
2023/10/25 01:09:20;;;;;;;;;;;8.90;99.90;;;;;;5053743;28;19920;-88
2023/10/25 01:11:46;;;;;;;;;;;8.90;99.90;;;;;;5071664;28;20144;-87
2023/10/25 01:14:11;;;;;;;;;;;8.80;99.90;;;;;;5075904;28;20279;-87
2023/10/25 01:16:37;;;;;;;;;;;8.80;99.90;;;;;;5042850;28;19920;-86
2023/10/25 01:19:02;;;;;;;;;;;8.80;99.90;;;;;;5064126;28;20535;-87
2023/10/25 01:21:28;;;;;;;;;;;8.80;99.90;;;;;;5071345;28;20318;-88
2023/10/25 01:23:54;;;;;;;;;;;8.80;99.90;;;;;;5078003;28;20391;-88
2023/10/25 01:26:19;;;;;;;;;;;8.70;99.90;;;;;;5045184;28;19924;-87
2023/10/25 01:28:45;;;;;;;;;;;8.70;99.90;;;;;;5077829;28;19927;-87
2023/10/25 01:31:10;;;;;;;;;;;8.60;99.90;;;;;;5051201;28;19919;-86
2023/10/25 01:33:36;;;;;;;;;;;8.60;99.90;;;;;;5044027;28;19924;-87
2023/10/25 01:36:02;;;;;;;;;;;8.60;99.90;;;;;;5050917;28;20015;-86
2023/10/25 01:38:27;;;;;;;;;;;8.60;99.90;;;;;;5052761;28;20374;-85
2023/10/25 01:40:53;;;;;;;;;;;8.60;99.90;;;;;;5085585;28;19920;-86
2023/10/25 01:43:18;;;;;;;;;;;8.60;99.90;;;;;;5059279;28;20436;-87
2023/10/25 01:45:44;;;;;;;;;;;8.60;99.90;;;;;;5037649;28;19920;-87
2023/10/25 01:48:09;;;;;;;;;;;8.60;99.90;;;;;;5047562;28;19925;-86
2023/10/25 01:50:35;;;;;;;;;;;8.50;99.90;;;;;;5078603;28;19924;-86
2023/10/25 01:53:00;;;;;;;;;;;8.40;99.90;;;;;;5041928;28;20003;-84
2023/10/25 01:55:26;;;;;;;;;;;8.50;99.90;;;;;;5042006;28;19924;-88
2023/10/25 01:57:52;;;;;;;;;;;8.50;99.90;;;;;;5043931;28;19920;-86
2023/10/25 02:00:17;;;;;;;;;;;8.50;99.90;;;;;;5059812;28;19920;-87
2023/10/25 02:02:43;;;;;;;;;;;8.50;99.90;;;;;;5075168;28;20391;-87
2023/10/25 02:05:08;;;;;;;;;;;8.50;99.90;;;;;;5058135;28;19924;-87
2023/10/25 02:07:34;;;;;;;;;;;8.50;99.90;;;;;;5054781;28;20431;-86
2023/10/25 02:10:00;;;;;;;;;;;8.40;99.90;;;;;;5076722;28;19927;-85
2023/10/25 02:12:25;;;;;;;;;;;8.40;99.90;;;;;;5059827;28;19936;-86
2023/10/25 02:14:51;;;;;;;;;;;8.40;99.90;;;;;;5060028;28;20006;-85
2023/10/25 02:17:17;;;;;;;;;;;8.40;99.90;;;;;;5058039;28;19924;-87
2023/10/25 02:19:45;;;;;;;;;;;8.40;99.90;;;;;;5040549;28;19921;-86
2023/10/25 02:22:10;;;;;;;;;;;8.30;99.90;;;;;;5042461;28;19920;-88
2023/10/25 02:24:36;;;;;;;;;;;8.30;99.90;;;;;;5059768;28;19943;-87
2023/10/25 02:27:02;;;;;;;;;;;8.30;99.90;;;;;;5063752;28;19928;-86
2023/10/25 02:29:27;;;;;;;;;;;8.30;99.90;;;;;;5075101;28;19971;-88
2023/10/25 02:31:53;;;;;;;;;;;8.30;99.90;;;;;;5057783;28;19984;-86
2023/10/25 02:34:19;;;;;;;;;;;8.30;99.90;;;;;;5065356;28;19919;-87
2023/10/25 02:36:44;;;;;;;;;;;8.30;99.90;;;;;;5059610;28;19927;-87
2023/10/25 02:39:10;;;;;;;;;;;8.30;99.90;;;;;;5057967;28;19967;-88
2023/10/25 02:41:36;;;;;;;;;;;8.50;99.90;;;;;;5058311;28;19926;-86
2023/10/25 02:44:02;;;;;;;;;;;8.30;99.90;;;;;;5074377;28;19928;-90
2023/10/25 02:46:28;;;;;;;;;;;8.20;99.90;;;;;;5051124;28;20375;-88
2023/10/25 02:48:53;;;;;;;;;;;8.20;99.90;;;;;;5041102;28;20531;-87
2023/10/25 02:51:19;;;;;;;;;;;8.20;99.90;;;;;;5082993;28;20006;-86
2023/10/25 02:53:45;;;;;;;;;;;8.30;99.90;;;;;;5043646;28;19963;-88
2023/10/25 02:56:10;;;;;;;;;;;8.20;99.90;;;;;;5062305;28;19920;-88
2023/10/25 02:58:36;;;;;;;;;;;8.10;99.90;;;;;;5066364;28;19923;-87
2023/10/25 03:01:02;;;;;;;;;;;8.30;99.90;;;;;;5049479;28;19920;-88
2023/10/25 03:03:28;;;;;;;;;;;8.20;99.90;;;;;;5050267;28;19969;-86
2023/10/25 03:05:54;;;;;;;;;;;8.10;99.90;;;;;;5068731;28;19920;-88
2023/10/25 03:08:20;;;;;;;;;;;8.20;99.90;;;;;;5024369;28;20049;-87
2023/10/25 03:10:45;;;;;;;;;;;8.30;99.90;;;;;;5069769;28;19920;-86
2023/10/25 03:13:11;;;;;;;;;;;8.10;99.90;;;;;;5078849;28;19920;-88
2023/10/25 03:15:37;;;;;;;;;;;8.20;99.90;;;;;;5048529;28;20544;-90
2023/10/25 03:18:02;;;;;;;;;;;8.30;99.90;;;;;;5074365;28;19973;-87
2023/10/25 03:20:28;;;;;;;;;;;8.30;99.90;;;;;;5047507;28;20351;-87
2023/10/25 03:22:54;;;;;;;;;;;8.30;99.90;;;;;;5058736;28;19927;-86
2023/10/25 03:25:20;;;;;;;;;;;8.20;99.90;;;;;;5039934;28;19920;-86
2023/10/25 03:27:46;;;;;;;;;;;8.20;99.90;;;;;;5074420;28;19924;-87
2023/10/25 03:30:12;;;;;;;;;;;8.30;99.90;;;;;;5041470;28;19965;-86
2023/10/25 03:32:38;;;;;;;;;;;8.20;99.90;;;;;;5057536;28;19920;-87
2023/10/25 03:35:04;;;;;;;;;;;8.30;99.90;;;;;;5051748;28;20333;-87
2023/10/25 03:37:30;;;;;;;;;;;8.30;99.90;;;;;;5061421;28;19920;-86
2023/10/25 03:39:55;;;;;;;;;;;8.30;99.90;;;;;;5074630;28;19924;-87
2023/10/25 03:42:21;;;;;;;;;;;8.10;99.90;;;;;;5037878;28;19924;-88
2023/10/25 03:44:46;;;;;;;;;;;8.10;99.90;;;;;;5076081;28;20400;-86
2023/10/25 03:47:12;;;;;;;;;;;8.70;99.90;;;;;;5074099;28;19920;-86
2023/10/25 03:49:38;;;;;;;;;;;9.20;99.90;;;;;;5074802;28;19921;-87
2023/10/25 03:52:03;;;;;;;;;;;8.20;99.90;;;;;;5072780;28;19920;-86
2023/10/25 03:54:30;;;;;;;;;;;8.20;99.90;;;;;;5073717;28;19936;-85
2023/10/25 03:56:56;;;;;;;;;;;8.10;99.90;;;;;;5072641;28;19946;-87
2023/10/25 03:59:22;;;;;;;;;;;8.20;99.90;;;;;;5084134;28;20012;-86
2023/10/25 04:01:47;;;;;;;;;;;8.10;99.90;;;;;;5071587;28;20268;-87
2023/10/25 04:04:13;;;;;;;;;;;8.10;99.90;;;;;;5057609;28;19946;-87
2023/10/25 04:06:38;;;;;;;;;;;8.40;99.90;;;;;;5040834;28;19920;-86
2023/10/25 04:09:04;;;;;;;;;;;8.10;99.90;;;;;;5086787;28;19920;-86
2023/10/25 04:11:30;;;;;;;;;;;8.20;99.90;;;;;;5046590;28;19970;-85
2023/10/25 04:13:55;;;;;;;;;;;8.20;99.90;;;;;;5061064;28;19920;-87
2023/10/25 04:16:21;;;;;;;;;;;8.20;99.90;;;;;;5061232;28;20359;-88
2023/10/25 04:18:46;;;;;;;;;;;8.10;99.90;;;;;;5044382;28;19928;-86
2023/10/25 04:21:13;;;;;;;;;;;8.10;99.90;;;;;;5059254;28;20278;-86
2023/10/25 04:23:39;;;;;;;;;;;8.10;99.90;;;;;;5094891;28;19985;-88
2023/10/25 04:26:04;;;;;;;;;;;8.10;99.90;;;;;;5059968;28;19924;-88
2023/10/25 04:28:30;;;;;;;;;;;8.10;99.90;;;;;;5078605;28;20283;-86
2023/10/25 04:30:56;;;;;;;;;;;8.00;99.90;;;;;;5061380;28;19930;-86
2023/10/25 04:33:21;;;;;;;;;;;8.30;99.90;;;;;;5078238;28;19920;-86
2023/10/25 04:35:47;;;;;;;;;;;7.90;99.90;;;;;;5057253;28;19960;-88
2023/10/25 04:38:12;;;;;;;;;;;7.90;99.90;;;;;;5064071;28;20023;-86
2023/10/25 04:40:38;;;;;;;;;;;7.90;99.90;;;;;;5062144;28;20578;-88
2023/10/25 04:43:04;;;;;;;;;;;7.90;99.90;;;;;;5077251;28;20382;-86
2023/10/25 04:45:29;;;;;;;;;;;7.90;99.90;;;;;;5041645;28;19974;-87
2023/10/25 04:47:55;;;;;;;;;;;7.90;99.90;;;;;;5053768;28;19974;-88
2023/10/25 04:50:21;;;;;;;;;;;7.90;99.90;;;;;;5041971;28;19921;-87
2023/10/25 04:52:47;;;;;;;;;;;7.80;99.90;;;;;;5077434;28;19927;-85
2023/10/25 04:55:13;;;;;;;;;;;7.80;99.90;;;;;;5042696;28;19920;-88
2023/10/25 04:57:39;;;;;;;;;;;7.80;99.90;;;;;;5058999;28;19920;-94
2023/10/25 05:00:08;;;;;;;;;;;7.80;99.90;;;;;;5063643;28;19943;-95
2023/10/25 05:02:33;;;;;;;;;;;7.80;99.90;;;;;;5063937;28;20284;-93
2023/10/25 05:04:59;;;;;;;;;;;7.80;99.90;;;;;;5045481;28;19924;-93
2023/10/25 05:07:25;;;;;;;;;;;7.80;99.90;;;;;;5062724;28;19985;-94
2023/10/25 05:09:50;;;;;;;;;;;7.80;99.90;;;;;;5061934;28;19931;-88
2023/10/25 05:12:17;;;;;;;;;;;7.80;99.90;;;;;;5062822;28;20329;-88
2023/10/25 05:14:43;;;;;;;;;;;7.80;99.90;;;;;;5088466;28;19919;-89
2023/10/25 05:17:09;;;;;;;;;;;7.80;99.90;;;;;;5054702;28;20006;-90
2023/10/25 05:19:35;;;;;;;;;;;7.80;99.90;;;;;;5059519;28;19999;-87
2023/10/25 05:22:05;;;;;;;;;;;7.70;99.90;;;;;;5058650;28;20719;-90
2023/10/25 05:24:31;;;;;;;;;;;7.70;99.90;;;;;;5058883;28;20551;-88
2023/10/25 05:26:56;;;;;;;;;;;7.70;99.90;;;;;;5060841;28;19970;-88
2023/10/25 05:29:22;;;;;;;;;;;7.70;99.90;;;;;;5075384;28;19970;-87
2023/10/25 05:31:48;;;;;;;;;;;7.70;99.90;;;;;;5077470;28;19927;-88
2023/10/25 05:34:14;;;;;;;;;;;7.60;99.90;;;;;;5082940;28;19927;-88
2023/10/25 05:36:39;;;;;;;;;;;7.70;99.90;;;;;;5059330;28;19963;-86
2023/10/25 05:39:05;;;;;;;;;;;7.60;99.90;;;;;;5060811;28;19920;-86
2023/10/25 05:41:35;;;;;;;;;;;7.60;99.90;;;;;;5044552;28;19943;-89
2023/10/25 05:44:03;;;;;;;;;;;7.60;99.90;;;;;;5084572;28;19924;-89
2023/10/25 05:46:29;;;;;;;;;;;7.60;99.90;;;;;;5064757;28;19973;-88
2023/10/25 05:48:55;;;;;;;;;;;7.60;99.90;;;;;;5066671;28;19924;-89
2023/10/25 05:51:21;;;;;;;;;;;7.20;99.90;;;;;;5062774;28;19941;-89
2023/10/25 05:53:47;;;;;;;;;;;7.50;99.90;;;;;;5055276;28;19932;-86
2023/10/25 05:56:13;;;;;;;;;;;7.50;99.90;;;;;;5023935;28;20280;-88
2023/10/25 05:58:38;;;;;;;;;;;7.50;99.90;;;;;;5060102;28;19920;-89
2023/10/25 06:01:07;;;;;;;;;;;7.50;99.90;;;;;;5056898;28;20322;-88
2023/10/25 06:03:34;;;;;;;;;;;7.50;99.90;;;;;;5053984;28;19952;-88
2023/10/25 06:06:01;;;;;;;;;;;7.50;99.90;;;;;;5056493;28;19924;-87
2023/10/25 06:08:27;;;;;;;;;;;7.50;99.90;;;;;;5046410;28;20709;-87
2023/10/25 06:10:53;;;;;;;;;;;7.50;99.90;;;;;;5022302;28;19925;-88
2023/10/25 06:13:18;;;;;;;;;;;7.40;99.90;;;;;;5039632;28;19921;-88
2023/10/25 06:15:45;;;;;;;;;;;;;;;;;;5039045;28;19927;-87
2023/10/25 06:18:11;;;;;;;;;;;7.60;99.90;;;;;;5062097;28;19973;-86
2023/10/25 06:20:36;;;;;;;;;;;7.80;99.90;;;;;;5058483;28;19924;-88
2023/10/25 06:23:02;;;;;;;;;;;7.50;99.90;;;;;;5049608;28;20456;-88
2023/10/25 06:25:31;;;;;;;;;;;8.20;99.90;;;;;;5044008;28;19946;-87
2023/10/25 06:27:59;;;;;;;;;;;7.40;99.90;;;;;;5031014;28;19931;-87
2023/10/25 06:30:26;;;;;;;;;;;7.40;99.90;;;;;;5054017;28;19924;-88
2023/10/25 06:32:52;;;;;;;;;;;7.40;99.90;;;;;;5021517;28;20306;-88
2023/10/25 06:35:17;;;;;;;;;;;7.40;99.90;;;;;;5030219;28;19931;-87
2023/10/25 06:37:43;;;;;;;;;;;7.40;99.90;;;;;;5040306;28;19928;-89
2023/10/25 06:40:09;;;;;;;;;;;7.40;99.90;;;;;;5022367;28;19924;-88
2023/10/25 06:42:34;;;;;;;;;;;7.40;99.90;;;;;;5020969;28;20379;-88
2023/10/25 06:45:01;;;;;;;;;;;7.50;99.90;;;;;;5024550;28;19973;-89
2023/10/25 06:47:28;;;;;;;;;;;7.20;99.90;;;;;;5037015;28;20372;-89
2023/10/25 06:49:53;;;;;;;;;;;7.50;99.90;;;;;;5038571;28;20050;-88
2023/10/25 06:52:19;;;;;;;;;;;7.60;99.90;;;;;;5040943;28;19999;-86
2023/10/25 06:54:45;;;;;;;;;;;7.80;99.90;;;;;;5044704;28;19924;-87
2023/10/25 06:57:11;;;;;;;;;;;8.20;99.90;;;;;;5026625;28;19924;-88
2023/10/25 06:59:37;;;;;;;;;;;8.90;99.90;;;;;;5068805;28;19951;-88
2023/10/25 07:02:21;;;;;;;;;;;9.00;99.90;;;;;;5067115;28;19924;-92
2023/10/25 07:04:52;;;;;;;;;;;8.70;99.90;;;;;;5085203;28;20993;-88
2023/10/25 07:07:22;;;;;;;;;;;8.90;99.90;;;;;;5058867;28;19966;-90
2023/10/25 07:09:47;;;;;;;;;;;8.90;99.90;;;;;;5063789;28;20575;-88
2023/10/25 07:12:13;;;;;;;;;;;8.80;99.90;;;;;;5051123;28;19939;-87
2023/10/25 07:14:39;;;;;;;;;;;7.70;99.90;;;;;;5061496;28;20387;-88
2023/10/25 07:17:04;;;;;;;;;;;8.70;99.90;;;;;;5075681;28;19924;-86
2023/10/25 07:19:30;;;;;;;;;;;8.60;99.90;;;;;;5056456;28;19920;-90
2023/10/25 07:21:55;;;;;;;;;;;8.60;99.90;;;;;;5055822;28;20410;-91
2023/10/25 07:24:21;;;;;;;;;;;8.60;99.90;;;;;;5054552;28;20054;-91
2023/10/25 07:26:47;;;;;;;;;;;8.60;99.90;;;;;;5071969;28;19947;-88
2023/10/25 07:29:12;;;;;;;;;;;8.60;99.90;;;;;;5025917;28;19921;-90
2023/10/25 07:31:38;;;;;;;;;;;8.60;99.90;;;;;;5054475;28;19928;-87
2023/10/25 07:34:03;;;;;;;;;;;8.60;99.90;;;;;;5035013;28;19985;-89
2023/10/25 07:36:29;;;;;;;;;;;8.50;99.90;;;;;;5043093;28;19920;-89
2023/10/25 07:38:55;;;;;;;;;;;8.50;99.90;;;;;;5037976;28;20570;-91
2023/10/25 07:41:20;;;;;;;;;;;8.40;99.90;;;;;;5046342;28;19921;-90
2023/10/25 07:43:46;;;;;;;;;;;8.50;99.90;;;;;;5074504;28;19985;-91
2023/10/25 07:46:11;;;;;;;;;;;8.50;99.90;;;;;;5034309;28;20257;-86
2023/10/25 07:48:37;;;;;;;;;;;8.50;99.90;;;;;;5042323;28;20015;-89
2023/10/25 07:51:04;;;;;;;;;;;8.50;99.90;;;;;;5055887;28;20006;-89
2023/10/25 07:53:30;;;;;;;;;;;8.10;99.90;;;;;;5033701;28;20629;-87
2023/10/25 07:55:56;;;;;;;;;;;8.70;99.90;;;;;;5062886;28;19952;-87
2023/10/25 07:58:22;;;;;;;;;;;8.70;99.90;;;;;;5057222;28;20675;-91
2023/10/25 08:00:50;;;;;;;;;;;8.80;99.90;;;;;;5057149;28;19924;-88
2023/10/25 08:03:17;;;;;;;;;;;8.80;99.90;;;;;;5036821;28;19936;-88
2023/10/25 08:05:43;;;;;;;;;;;8.80;99.90;;;;;;5076006;28;19924;-89
2023/10/25 08:08:09;;;;;;;;;;;8.90;99.90;;;;;;5068199;28;20356;-87
2023/10/25 08:10:34;;;;;;;;;;;8.80;99.90;;;;;;5044446;28;20497;-87
2023/10/25 08:13:00;;;;;;;;;;;8.80;99.90;;;;;;5063339;28;20019;-90
2023/10/25 08:15:26;;;;;;;;;;;8.90;99.90;;;;;;5048530;28;20319;-87
2023/10/25 08:17:54;;;;;;;;;;;8.90;99.90;;;;;;5043802;28;19932;-88
2023/10/25 08:20:20;;;;;;;;;;;8.90;99.90;;;;;;5054625;28;19921;-90
2023/10/25 08:22:46;;;;;;;;;;;8.90;99.90;;;;;;5077064;28;19928;-89
2023/10/25 08:25:11;;;;;;;;;;;8.90;99.90;;;;;;5074507;28;19924;-90
2023/10/25 08:27:37;;;;;;;;;;;9.00;99.90;;;;;;5061652;28;19920;-88
2023/10/25 08:30:03;;;;;;;;;;;9.00;99.90;;;;;;5074482;28;19979;-87
2023/10/25 08:32:29;;;;;;;;;;;9.10;99.90;;;;;;5064027;28;20331;-89
2023/10/25 08:34:54;;;;;;;;;;;9.10;99.90;;;;;;5059041;28;19920;-89
2023/10/25 08:37:20;;;;;;;;;;;9.10;99.90;;;;;;5059343;28;19927;-87
2023/10/25 08:39:46;;;;;;;;;;;9.20;99.90;;;;;;5035304;28;19991;-91
2023/10/25 08:42:12;;;;;;;;;;;9.20;99.90;;;;;;5041036;28;19927;-89
2023/10/25 08:44:40;;;;;;;;;;;9.30;99.90;;;;;;5057150;28;20018;-90
2023/10/25 08:47:06;;;;;;;;;;;9.30;99.90;;;;;;5055715;28;20317;-89
2023/10/25 08:49:32;;;;;;;;;;;9.40;99.90;;;;;;5069593;28;20379;-92
2023/10/25 08:51:59;;;;;;;;;;;9.40;99.90;;;;;;5060830;28;19926;-89
2023/10/25 08:54:24;;;;;;;;;;;9.50;99.90;;;;;;5093931;28;20413;-88
2023/10/25 08:56:50;;;;;;;;;;;9.50;99.90;;;;;;5042459;28;19931;-90
2023/10/25 08:59:16;;;;;;;;;;;9.60;99.90;;;;;;5083396;28;19920;-87
2023/10/25 09:01:41;;;;;;;;;;;9.60;99.90;;;;;;5076580;28;19923;-89
2023/10/25 09:04:08;;;;;;;;;;;9.60;99.90;;;;;;5077188;28;19924;-89
2023/10/25 09:06:33;;;;;;;;;;;9.60;99.90;;;;;;5076349;28;19942;-89
2023/10/25 09:09:02;;;;;;;;;;;9.70;99.90;;;;;;5064656;28;19920;-89
2023/10/25 09:11:37;;;;;;;;;;;9.60;99.90;;;;;;5067039;28;19924;-91
2023/10/25 09:14:03;;;;;;;;;;;9.70;99.90;;;;;;5076642;28;19920;-86
2023/10/25 09:16:30;;;;;;;;;;;9.70;99.90;;;;;;5078598;28;19920;-89
2023/10/25 09:18:58;;;;;;;;;;;9.80;99.90;;;;;;5102302;28;19928;-89
2023/10/25 09:21:27;;;;;;;;;;;9.70;99.90;;;;;;5093586;28;19927;-91
2023/10/25 09:23:56;;;;;;;;;;;9.70;99.90;;;;;;5061840;28;20061;-90
2023/10/25 09:26:23;;;;;;;;;;;8.60;99.90;;;;;;5074855;28;19920;-88
2023/10/25 09:28:52;;;;;;;;;;;9.70;99.90;;;;;;5055949;28;19928;-88
2023/10/25 09:31:26;;;;;;;;;;;9.70;99.90;;;;;;5074145;28;19926;-90
2023/10/25 09:33:53;;;;;;;;;;;9.70;99.90;;;;;;5092036;28;20325;-91
2023/10/25 09:36:19;;;;;;;;;;;9.80;99.90;;;;;;5076349;28;19920;-87
2023/10/25 09:38:45;;;;;;;;;;;9.70;99.90;;;;;;5094274;28;19935;-90
2023/10/25 09:41:12;;;;;;;;;;;9.80;99.90;;;;;;5086232;28;19924;-89
2023/10/25 09:43:38;;;;;;;;;;;9.80;99.90;;;;;;5061844;28;20442;-93
2023/10/25 09:46:07;;;;;;;;;;;9.80;99.90;;;;;;5059694;28;20313;-91
2023/10/25 09:48:35;;;;;;;;;;;9.80;99.90;;;;;;5075436;28;19928;-90
2023/10/25 09:51:06;;;;;;;;;;;9.90;99.90;;;;;;5084987;28;19930;-91
2023/10/25 09:53:43;;;;;;;;;;;9.90;99.90;;;;;;5080014;28;20430;-89
2023/10/25 09:56:09;;;;;;;;;;;10.00;99.90;;;;;;5062046;28;19920;-90
2023/10/25 09:58:35;;;;;;;;;;;10.00;99.90;;;;;;5078852;28;19924;-90
2023/10/25 10:01:03;;;;;;;;;;;10.00;99.90;;;;;;5042152;28;19920;-88
2023/10/25 10:03:35;;;;;;;;;;;10.00;99.90;;;;;;5062025;28;19985;-90
2023/10/25 10:06:07;;;;;;;;;;;10.00;99.90;;;;;;5047947;28;19921;-90
2023/10/25 10:08:42;;;;;;;;;;;10.10;99.90;;;;;;5078816;28;20475;-89
2023/10/25 10:11:15;;;;;;;;;;;10.10;99.90;;;;;;5062748;28;19927;-91
2023/10/25 10:13:40;;;;;;;;;;;10.20;99.90;;;;;;5059222;28;19956;-91
2023/10/25 10:16:11;;;;;;;;;;;10.30;99.90;;;;;;5064183;28;19971;-90
2023/10/25 10:18:37;;;;;;;;;;;10.30;99.90;;;;;;5056015;28;19924;-88
2023/10/25 10:21:07;;;;;;;;;;;10.40;99.90;;;;;;5061023;28;19927;-91
2023/10/25 10:23:34;;;;;;;;;;;10.40;99.90;;;;;;5058930;28;20424;-90
2023/10/25 10:26:01;;;;;;;;;;;10.50;99.90;;;;;;5077228;28;19920;-91
2023/10/25 10:28:38;;;;;;;;;;;10.60;99.90;;;;;;5077687;28;19939;-92
2023/10/25 10:31:03;;;;;;;;;;;10.70;99.90;;;;;;5055390;28;19981;-89
2023/10/25 10:33:29;;;;;;;;;;;11.40;99.90;;;;;;5058374;28;19983;-93
2023/10/25 10:35:59;;;;;;;;;;;11.30;99.90;;;;;;5043338;28;19949;-88
2023/10/25 10:38:24;;;;;;;;;;;11.30;99.90;;;;;;5058392;28;19920;-91
2023/10/25 10:40:53;;;;;;;;;;;11.30;99.90;;;;;;5043031;28;20066;-91
2023/10/25 10:43:20;;;;;;;;;;;11.40;99.90;;;;;;5065148;28;19926;-92
2023/10/25 10:45:50;;;;;;;;;;;11.50;99.90;;;;;;5052043;28;19928;-89
2023/10/25 10:48:21;;;;;;;;;;;11.50;99.90;;;;;;5070802;28;19928;-90
2023/10/25 10:50:47;;;;;;;;;;;11.50;99.90;;;;;;5082372;28;19946;-88
2023/10/25 10:53:13;;;;;;;;;;;11.50;99.90;;;;;;5060139;28;19963;-90
2023/10/25 10:55:40;;;;;;;;;;;11.60;99.90;;;;;;5043205;28;19920;-92
2023/10/25 10:58:06;;;;;;;;;;;11.60;99.90;;;;;;5055798;28;19955;-86
2023/10/25 11:00:31;;;;;;;;;;;11.60;99.90;;;;;;5059874;28;19970;-89
2023/10/25 11:02:59;;;;;;;;;;;11.70;99.90;;;;;;5044031;28;19954;-94
2023/10/25 11:05:25;;;;;;;;;;;11.70;99.90;;;;;;5056607;28;20298;-88
2023/10/25 11:07:51;;;;;;;;;;;11.80;99.90;;;;;;5063690;28;19920;-90
2023/10/25 11:10:17;;;;;;;;;;;11.90;99.90;;;;;;5083181;28;19954;-91
2023/10/25 11:12:43;;;;;;;;;;;11.90;99.90;;;;;;5075356;28;19920;-91
2023/10/25 11:15:09;;;;;;;;;;;12.00;99.90;;;;;;5054403;28;20026;-90
2023/10/25 11:17:35;;;;;;;;;;;12.10;99.90;;;;;;5076833;28;19928;-92
2023/10/25 11:20:02;;;;;;;;;;;12.10;99.90;;;;;;5078974;28;20406;-92
2023/10/25 11:22:30;;;;;;;;;;;12.20;99.90;;;;;;5055176;28;19924;-92
2023/10/25 11:24:56;;;;;;;;;;;12.30;99.90;;;;;;5080193;28;19928;-91
2023/10/25 11:27:28;;;;;;;;;;;12.40;99.90;;;;;;5073589;28;20003;-91
2023/10/25 11:29:54;;;;;;;;;;;12.40;99.90;;;;;;5073425;28;19927;-90
2023/10/25 11:32:19;;;;;;;;;;;12.50;99.90;;;;;;5073433;28;19920;-88
2023/10/25 11:34:47;;;;;;;;;;;12.50;99.90;;;;;;5074884;28;19920;-89
2023/10/25 11:37:12;;;;;;;;;;;12.50;99.90;;;;;;5050429;28;19930;-92
2023/10/25 11:39:57;;;;;;;;;;;12.50;99.90;;;;;;5054554;28;19998;-91
2023/10/25 11:42:30;;;;;;;;;;;12.40;99.90;;;;;;5066783;28;20375;-89
2023/10/25 11:44:55;;;;;;;;;;;12.40;99.90;;;;;;5058775;28;19924;-88
2023/10/25 11:47:21;;;;;;;;;;;12.40;99.90;;;;;;5059142;28;19920;-91
2023/10/25 11:49:56;;;;;;;;;;;12.40;99.90;;;;;;5058317;28;19979;-91
2023/10/25 11:52:22;;;;;;;;;;;12.30;99.90;;;;;;5067630;28;19920;-87
2023/10/25 11:54:49;;;;;;;;;;;12.30;99.90;;;;;;5061366;28;19955;-87
2023/10/25 11:57:15;;;;;;;;;;;12.30;99.90;;;;;;5057185;28;19919;-81
2023/10/25 11:59:41;;;;;;;;;;;12.30;99.90;;;;;;5042850;28;19974;-93
2023/10/25 12:02:06;;;;;;;;;;;12.30;99.90;;;;;;5063368;28;19938;-83
2023/10/25 12:04:32;;;;;;;;;;;12.30;99.90;;;;;;5046031;28;20019;-88
2023/10/25 12:06:57;;;;;;;;;;;12.30;99.90;;;;;;5050280;28;20547;-89
2023/10/25 12:09:23;;;;;;;;;;;12.20;99.90;;;;;;5074149;28;19973;-90
2023/10/25 12:11:48;;;;;;;;;;;12.20;99.90;;;;;;5042970;28;19942;-88
2023/10/25 12:14:14;;;;;;;;;;;12.20;99.90;;;;;;5057846;28;19986;-91
2023/10/25 12:16:40;;;;;;;;;;;12.10;99.90;;;;;;5040861;28;19920;-86
2023/10/25 12:19:05;;;;;;;;;;;12.20;99.90;;;;;;5061664;28;19920;-90
2023/10/25 12:21:32;;;;;;;;;;;12.10;99.90;;;;;;5040748;28;19920;-86
2023/10/25 12:23:57;;;;;;;;;;;12.10;99.90;;;;;;5041866;28;19932;-89
2023/10/25 12:26:23;;;;;;;;;;;12.20;99.90;;;;;;5042969;28;19931;-90
2023/10/25 12:28:49;;;;;;;;;;;12.10;99.90;;;;;;5070440;28;19924;-89
2023/10/25 12:31:14;;;;;;;;;;;12.10;99.90;;;;;;5043414;28;19920;-92
2023/10/25 12:33:40;;;;;;;;;;;12.10;99.90;;;;;;5061992;28;19921;-87
2023/10/25 12:36:05;;;;;;;;;;;12.00;99.90;;;;;;5060637;28;19920;-85
2023/10/25 12:38:31;;;;;;;;;;;12.00;99.90;;;;;;5078341;28;20274;-93
2023/10/25 12:40:56;;;;;;;;;;;12.00;99.90;;;;;;5061093;28;19924;-89
2023/10/25 12:43:22;;;;;;;;;;;11.90;99.90;;;;;;5045870;28;19931;-85
2023/10/25 12:45:48;;;;;;;;;;;11.90;99.90;;;;;;5050647;28;19920;-91
2023/10/25 12:48:13;;;;;;;;;;;11.90;99.90;;;;;;5061366;28;19923;-93
2023/10/25 12:50:39;;;;;;;;;;;11.80;99.90;;;;;;5042672;28;19920;-91
2023/10/25 12:53:04;;;;;;;;;;;11.80;99.90;;;;;;5046601;28;19932;-89
2023/10/25 12:55:30;;;;;;;;;;;11.80;99.90;;;;;;5044140;28;19924;-94
2023/10/25 12:57:56;;;;;;;;;;;11.80;99.90;;;;;;5044007;28;20000;-91
2023/10/25 13:00:21;;;;;;;;;;;11.80;99.90;;;;;;5054101;28;20014;-90
2023/10/25 13:02:47;;;;;;;;;;;11.80;99.90;;;;;;5067500;28;19921;-89
2023/10/25 13:05:12;;;;;;;;;;;11.80;99.90;;;;;;5070031;28;20409;-91
2023/10/25 13:07:39;;;;;;;;;;;11.80;99.90;;;;;;5089075;28;19998;-90
2023/10/25 13:10:05;;;;;;;;;;;11.70;99.90;;;;;;5061745;28;19920;-88
2023/10/25 13:12:33;;;;;;;;;;;11.80;99.90;;;;;;5042519;28;19920;-88
2023/10/25 13:14:58;;;;;;;;;;;11.80;99.90;;;;;;5052229;28;19973;-91
2023/10/25 13:17:24;;;;;;;;;;;11.70;99.90;;;;;;5045236;28;20482;-90
2023/10/25 13:19:49;;;;;;;;;;;11.80;99.90;;;;;;5077950;28;19920;-89
2023/10/25 13:22:15;;;;;;;;;;;11.80;99.90;;;;;;5040783;28;20267;-88
2023/10/25 13:24:41;;;;;;;;;;;11.70;99.90;;;;;;5050881;28;19978;-89
2023/10/25 13:27:06;;;;;;;;;;;11.80;99.90;;;;;;5087634;28;19931;-88
2023/10/25 13:29:32;;;;;;;;;;;11.80;99.90;;;;;;5056646;28;19920;-89
2023/10/25 13:31:58;;;;;;;;;;;11.70;99.90;;;;;;5045594;28;19923;-89
2023/10/25 13:34:23;;;;;;;;;;;11.70;99.90;;;;;;5054671;28;19920;-90
2023/10/25 13:36:49;;;;;;;;;;;11.70;99.90;;;;;;5066909;28;20474;-90
2023/10/25 13:39:15;;;;;;;;;;;11.70;99.90;;;;;;5062267;28;19920;-89
2023/10/25 13:41:40;;;;;;;;;;;11.70;99.90;;;;;;5090060;28;20002;-86
2023/10/25 13:44:06;;;;;;;;;;;11.60;99.90;;;;;;5049148;28;19924;-90
2023/10/25 13:46:31;;;;;;;;;;;11.60;99.90;;;;;;5043047;28;19931;-90
2023/10/25 13:48:57;;;;;;;;;;;11.60;99.90;;;;;;5040705;28;19990;-90
2023/10/25 13:51:22;;;;;;;;;;;11.60;99.90;;;;;;5044990;28;19927;-90
2023/10/25 13:53:48;;;;;;;;;;;11.60;99.90;;;;;;5075491;28;19924;-88
2023/10/25 13:56:16;;;;;;;;;;;11.60;99.90;;;;;;5042417;28;19920;-89
2023/10/25 13:58:41;;;;;;;;;;;11.50;99.90;;;;;;5048359;28;19929;-89
2023/10/25 14:01:07;;;;;;;;;;;11.60;99.90;;;;;;5052302;28;19928;-91
2023/10/25 14:03:33;;;;;;;;;;;11.60;99.90;;;;;;5075343;28;19971;-88
2023/10/25 14:06:03;;;;;;;;;;;11.50;99.90;;;;;;5059391;28;19973;-89
2023/10/25 14:08:29;;;;;;;;;;;11.60;99.90;;;;;;5059477;28;19988;-88
2023/10/25 14:10:55;;;;;;;;;;;11.50;99.90;;;;;;5072912;28;20006;-88
2023/10/25 14:13:21;;;;;;;;;;;11.60;99.90;;;;;;5040038;28;20018;-85
2023/10/25 14:15:47;;;;;;;;;;;11.60;99.90;;;;;;5056882;28;19924;-88
2023/10/25 14:18:13;;;;;;;;;;;11.50;99.90;;;;;;5058935;28;19932;-87
2023/10/25 14:20:39;;;;;;;;;;;11.50;99.90;;;;;;5052769;28;19981;-89